Terminal Aerodrome Forecast
Issued by NWS

Home | Current Version | Previous Version | Text Only | Print | Product List | Glossary On
Versions: 1 2 3 4 5 6 7 8 9 10 11 12 13 14 15 16 17 18 19 20 21 22
044
FTUS43 KICT 201733
TAFCNU
TAF
KCNU 201733Z 2018/2118 16009KT P6SM SCT009 BKN020
     FM202200 18012KT P6SM SCT035
     FM210300 18009KT P6SM FEW150
     FM210700 19010KT P6SM FEW250
     FM211300 21005KT P6SM SCT140=

USA.gov is the U.S. government's official web portal to all federal, state and local government web resources and services.